Time;durP1;ratioP1;P1;durP2;ratioP2;P2;SDS_P1;SDS_P2;PMS_P1;PMS_P2;Temp;Humidity;BMP_temperature;BMP_pressure;BME280_temperature;BME280_humidity;BME280_pressure;Samples;Min_cycle;Max_cycle;Signal;HPM_P1;HPM_P2
2021/12/09 00:01:01;;;;;;;;;1.50;0.50;;;;;6.71;60.35;100050.69;5031467;28;45032;-67
2021/12/09 00:03:32;;;;;;;;;0.75;0.75;;;;;6.58;60.08;100030.81;5012941;28;45136;-65
2021/12/09 00:05:59;;;;;;;;;0.75;0.75;;;;;6.67;60.17;100044.38;5014225;28;45098;-65
2021/12/09 00:08:28;;;;;;;;;5.00;1.50;;;;;6.67;60.22;100046.16;5034672;28;45090;-65
2021/12/09 00:10:54;;;;;;;;;0.00;0.00;;;;;6.26;60.25;99975.00;5041039;28;45157;-65
2021/12/09 00:13:21;;;;;;;;;1.25;1.25;;;;;6.59;60.63;100033.53;5031820;28;44945;-64
2021/12/09 00:15:46;;;;;;;;;2.00;2.00;;;;;6.65;60.57;100048.75;5031324;28;45901;-65
2021/12/09 00:18:12;;;;;;;;;1.75;1.75;;;;;6.58;60.39;100039.69;5032012;28;45037;-64
2021/12/09 00:20:37;;;;;;;;;0.00;0.00;;;;;6.61;60.04;100050.38;5031942;28;45257;-64
2021/12/09 00:23:03;;;;;;;;;2.00;0.25;;;;;5.84;60.41;99925.94;5033267;28;45139;-64
2021/12/09 00:25:28;;;;;;;;;1.00;1.00;;;;;6.51;60.53;100050.97;5032567;28;45053;-64
2021/12/09 00:27:54;;;;;;;;;1.00;1.00;;;;;6.30;60.66;100013.13;5027390;28;45255;-63
2021/12/09 00:30:20;;;;;;;;;0.00;0.00;;;;;6.44;60.74;100043.66;5011366;28;45156;-65
2021/12/09 00:32:47;;;;;;;;;1.00;1.00;;;;;6.37;60.75;100023.09;5012650;28;45182;-63
2021/12/09 00:35:15;;;;;;;;;2.00;0.75;;;;;6.51;60.98;100039.44;5011587;28;45056;-66
2021/12/09 00:37:52;;;;;;;;;0.75;0.00;;;;;6.38;60.69;100020.47;5021662;28;44931;-65
2021/12/09 00:40:18;;;;;;;;;1.75;1.50;;;;;6.37;60.85;100013.38;5032199;28;45049;-64
2021/12/09 00:42:43;;;;;;;;;1.00;1.00;;;;;6.35;60.86;100025.72;5032544;28;45199;-66
2021/12/09 00:45:09;;;;;;;;;1.50;1.50;;;;;6.31;60.82;100022.91;5032652;28;44992;-66
2021/12/09 00:47:34;;;;;;;;;1.00;1.00;;;;;6.51;61.22;100053.59;5032272;28;45074;-65
2021/12/09 00:50:00;;;;;;;;;1.00;1.00;;;;;6.53;61.06;100053.66;5032318;28;45073;-65
2021/12/09 00:52:26;;;;;;;;;0.00;0.00;;;;;6.24;60.84;100008.56;5032408;28;45107;-64
2021/12/09 00:54:52;;;;;;;;;1.00;1.00;;;;;6.55;60.99;100049.28;5031450;28;46623;-63
2021/12/09 00:57:18;;;;;;;;;0.00;0.00;;;;;6.55;60.73;100060.84;5032191;28;45397;-64
2021/12/09 00:59:44;;;;;;;;;1.25;1.00;;;;;6.56;60.88;100065.28;5025994;28;45184;-64
2021/12/09 01:02:10;;;;;;;;;2.00;0.50;;;;;6.46;60.68;100034.00;5012729;28;44941;-66
2021/12/09 01:04:37;;;;;;;;;2.00;0.00;;;;;6.46;60.71;100034.00;5012086;28;45647;-64
2021/12/09 01:07:04;;;;;;;;;1.50;0.50;;;;;6.14;61.00;99971.97;5011583;28;44995;-65
2021/12/09 01:09:30;;;;;;;;;1.50;0.50;;;;;6.64;60.59;100060.22;5012246;28;44915;-63
2021/12/09 01:11:55;;;;;;;;;2.00;2.00;;;;;6.61;60.95;100052.16;5012637;28;45172;-64
2021/12/09 01:14:21;;;;;;;;;1.00;1.00;;;;;6.56;60.61;100046.69;5011911;28;45298;-68
2021/12/09 01:16:46;;;;;;;;;1.00;1.00;;;;;6.58;60.53;100050.31;5027789;28;45207;-65
2021/12/09 01:19:11;;;;;;;;;1.25;0.00;;;;;6.60;60.68;100056.56;5030321;28;45285;-64
2021/12/09 01:21:37;;;;;;;;;0.75;0.75;;;;;6.63;60.52;100056.66;5031985;28;45230;-64
2021/12/09 01:24:02;;;;;;;;;0.75;0.75;;;;;6.57;60.38;100048.50;5031221;28;45089;-64
2021/12/09 01:26:31;;;;;;;;;1.75;0.00;;;;;6.24;60.56;99987.34;5032142;28;44930;-66
2021/12/09 01:29:01;;;;;;;;;2.00;1.00;;;;;6.75;60.34;100072.06;5031813;28;44940;-66
2021/12/09 01:31:33;;;;;;;;;1.50;1.50;;;;;6.73;59.96;100075.50;5031971;28;45672;-63
2021/12/09 01:34:03;;;;;;;;;2.00;2.00;;;;;6.77;60.05;100075.66;5035592;28;45852;-64
2021/12/09 01:36:34;;;;;;;;;0.00;0.00;;;;;6.75;59.98;100087.09;5035550;28;45018;-64
2021/12/09 01:39:04;;;;;;;;;0.25;0.25;;;;;6.67;60.12;100070.94;5034997;28;45080;-65
2021/12/09 01:41:29;;;;;;;;;0.50;0.50;;;;;6.52;60.11;100031.53;5050589;28;45043;-64
2021/12/09 01:43:55;;;;;;;;;0.00;0.00;;;;;6.78;60.07;100081.84;5035151;28;45027;-64
2021/12/09 01:46:20;;;;;;;;;1.75;1.00;;;;;6.80;59.99;100083.72;5035098;28;45093;-64
2021/12/09 01:48:49;;;;;;;;;2.00;1.00;;;;;6.85;59.81;100082.94;5034635;28;45314;-64
2021/12/09 01:51:15;;;;;;;;;1.25;0.00;;;;;6.88;59.89;100094.59;5035005;28;45255;-64
2021/12/09 01:53:41;;;;;;;;;0.00;0.00;;;;;6.89;59.62;100100.78;5034474;28;45146;-64
2021/12/09 01:56:12;;;;;;;;;0.00;0.00;;;;;6.87;59.08;100098.09;5034875;28;45108;-63
2021/12/09 01:58:37;;;;;;;;;3.00;0.00;;;;;6.40;59.54;100018.78;5034706;28;45081;-63
2021/12/09 02:01:04;;;;;;;;;2.00;1.00;;;;;6.86;59.71;100103.34;5035674;28;44994;-65
2021/12/09 02:03:30;;;;;;;;;0.00;0.00;;;;;6.54;59.54;100048.41;5034477;28;45773;-65
2021/12/09 02:05:56;;;;;;;;;0.00;0.00;;;;;6.86;59.01;100106.00;5034630;28;45121;-65
2021/12/09 02:08:22;;;;;;;;;0.00;0.00;;;;;6.79;59.07;100078.38;5034667;28;45111;-65
2021/12/09 02:10:50;;;;;;;;;0.50;0.50;;;;;6.92;59.49;100100.88;5034380;28;45160;-64
2021/12/09 02:13:17;;;;;;;;;0.00;0.00;;;;;6.90;58.90;100105.25;5049902;28;46293;-62
2021/12/09 02:15:42;;;;;;;;;0.75;0.75;;;;;6.89;59.08;100100.78;5033974;28;45207;-64
2021/12/09 02:18:10;;;;;;;;;0.00;0.00;;;;;6.80;59.56;100085.50;5034267;28;44943;-66
2021/12/09 02:20:38;;;;;;;;;2.50;1.00;;;;;6.90;59.49;100102.59;5034983;28;45093;-65
2021/12/09 02:23:08;;;;;;;;;0.00;0.00;;;;;6.86;59.58;100098.03;5034278;28;45211;-64
2021/12/09 02:25:34;;;;;;;;;2.25;1.00;;;;;6.91;59.09;100089.34;5033768;28;45060;-62
2021/12/09 02:27:59;;;;;;;;;0.25;0.00;;;;;6.89;59.56;100091.06;5034242;28;44984;-66
2021/12/09 02:30:25;;;;;;;;;0.25;0.25;;;;;6.77;59.39;100080.97;5034873;28;45180;-62
2021/12/09 02:32:51;;;;;;;;;0.00;0.00;;;;;6.73;59.59;100076.44;5034251;28;46047;-65
2021/12/09 02:35:16;;;;;;;;;1.25;0.00;;;;;6.87;59.38;100103.41;5034521;28;44926;-63
2021/12/09 02:37:42;;;;;;;;;0.00;0.00;;;;;6.35;59.61;100056.63;5032812;28;45353;-66
2021/12/09 02:40:09;;;;;;;;;0.00;0.00;;;;;6.76;59.87;100083.56;5030496;28;45494;-64
2021/12/09 02:42:34;;;;;;;;;0.00;0.00;;;;;6.94;59.64;100101.81;5013776;28;46465;-64
2021/12/09 02:45:03;;;;;;;;;0.00;0.00;;;;;6.80;59.64;100070.44;5014445;28;45045;-66
2021/12/09 02:47:28;;;;;;;;;1.25;0.00;;;;;6.96;59.73;100106.34;5014300;28;44952;-63
2021/12/09 02:49:53;;;;;;;;;2.75;0.00;;;;;6.94;59.33;100105.38;5014043;28;45068;-66
2021/12/09 02:52:19;;;;;;;;;2.75;1.25;;;;;6.94;59.76;100104.47;5013859;28;45522;-65
2021/12/09 02:54:45;;;;;;;;;2.00;0.00;;;;;6.81;59.51;100082.88;5014273;28;45148;-66
2021/12/09 02:57:11;;;;;;;;;0.75;0.75;;;;;6.66;59.19;100049.66;5014486;28;45140;-65
2021/12/09 02:59:36;;;;;;;;;0.75;0.00;;;;;6.97;59.50;100108.13;5014360;28;45232;-65
2021/12/09 03:02:05;;;;;;;;;1.75;0.00;;;;;6.92;59.79;100120.38;5013384;28;46260;-67
2021/12/09 03:04:39;;;;;;;;;2.00;1.00;;;;;6.92;59.73;100114.16;5014412;28;45104;-65
2021/12/09 03:07:12;;;;;;;;;1.00;0.00;;;;;6.93;59.48;100114.22;5014569;28;44932;-64
2021/12/09 03:09:48;;;;;;;;;2.75;0.25;;;;;6.70;59.54;100072.75;5013803;28;44991;-64
2021/12/09 03:12:16;;;;;;;;;0.00;0.00;;;;;6.90;59.75;100121.19;5014734;28;45283;-64
2021/12/09 03:14:41;;;;;;;;;2.75;1.00;;;;;6.77;59.42;100103.97;5033651;28;45491;-64
2021/12/09 03:17:07;;;;;;;;;3.25;0.00;;;;;6.83;59.62;100122.75;5033661;28;45104;-65
2021/12/09 03:19:32;;;;;;;;;2.00;0.50;;;;;6.85;59.80;100126.34;5033299;28;44923;-65
2021/12/09 03:21:57;;;;;;;;;0.50;0.50;;;;;6.80;59.92;100118.25;5031936;28;45605;-65
2021/12/09 03:24:23;;;;;;;;;2.00;0.50;;;;;6.80;59.84;100122.66;5031671;28;44970;-65
2021/12/09 03:26:56;;;;;;;;;0.75;0.00;;;;;6.79;59.96;100116.41;5031664;28;45022;-65
2021/12/09 03:29:23;;;;;;;;;1.50;0.00;;;;;6.82;60.11;100120.94;5032202;28;44997;-65
2021/12/09 03:31:51;;;;;;;;;2.25;0.50;;;;;6.72;60.07;100125.06;5031046;28;45310;-64
2021/12/09 03:34:22;;;;;;;;;2.25;0.00;;;;;6.76;59.91;100120.75;5031901;28;45014;-64
2021/12/09 03:36:50;;;;;;;;;0.00;0.00;;;;;6.78;60.46;100119.03;5019122;28;45088;-63
2021/12/09 03:39:20;;;;;;;;;2.00;0.00;;;;;6.77;60.17;100127.88;5014100;28;44915;-63
2021/12/09 03:41:50;;;;;;;;;1.50;1.00;;;;;6.78;60.20;100129.66;5013246;28;45600;-65
2021/12/09 03:44:16;;;;;;;;;1.00;1.00;;;;;6.82;60.14;100127.13;5028684;28;44968;-65
2021/12/09 03:46:42;;;;;;;;;1.00;1.00;;;;;6.85;59.92;100136.06;5013468;28;45209;-63
2021/12/09 03:49:08;;;;;;;;;1.50;1.00;;;;;6.76;60.34;100120.75;5013779;28;45107;-64
2021/12/09 03:51:35;;;;;;;;;1.00;0.00;;;;;6.84;60.16;100132.50;5013541;28;45310;-66
2021/12/09 03:54:04;;;;;;;;;1.25;1.00;;;;;6.52;60.20;100074.00;5015635;28;45058;-65
2021/12/09 03:56:30;;;;;;;;;2.00;1.00;;;;;6.87;60.30;100139.69;5032855;28;45094;-66
2021/12/09 03:58:55;;;;;;;;;0.00;0.00;;;;;6.89;59.88;100135.31;5033653;28;45110;-64
2021/12/09 04:01:21;;;;;;;;;1.75;0.00;;;;;6.94;59.79;100137.25;5031773;28;45199;-64
2021/12/09 04:03:46;;;;;;;;;1.00;1.00;;;;;6.95;59.69;100144.38;5031291;28;44890;-65
2021/12/09 04:06:11;;;;;;;;;4.25;0.75;;;;;6.63;59.77;100096.47;5030532;28;45039;-64
2021/12/09 04:08:38;;;;;;;;;2.00;0.25;;;;;6.95;59.74;100152.34;5030693;28;44887;-64
2021/12/09 04:11:03;;;;;;;;;0.00;0.00;;;;;6.90;60.04;100150.41;5018949;28;45099;-65
2021/12/09 04:13:30;;;;;;;;;3.00;3.00;;;;;6.91;59.74;100152.19;5012859;28;45212;-63
2021/12/09 04:15:56;;;;;;;;;3.25;1.00;;;;;6.95;60.01;100156.75;5012661;28;44938;-65
2021/12/09 04:18:21;;;;;;;;;3.00;1.50;;;;;6.97;60.10;100155.03;5013531;28;45209;-62
2021/12/09 04:20:46;;;;;;;;;2.50;1.00;;;;;6.94;59.95;100153.19;5013209;28;45473;-64
2021/12/09 04:23:12;;;;;;;;;2.00;0.00;;;;;6.74;59.77;100112.72;5014301;28;44946;-65
2021/12/09 04:25:37;;;;;;;;;0.00;0.00;;;;;6.90;60.01;100135.34;5030737;28;45108;-65
2021/12/09 04:28:03;;;;;;;;;0.00;0.00;;;;;6.98;60.08;100163.06;5031103;28;45434;-64
2021/12/09 04:30:29;;;;;;;;;2.00;2.00;;;;;6.96;59.75;100150.56;5032354;28;45092;-64
2021/12/09 04:32:55;;;;;;;;;3.00;1.00;;;;;6.97;59.82;100155.94;5031302;28;45017;-65
2021/12/09 04:35:22;;;;;;;;;1.50;1.00;;;;;6.96;59.75;100153.22;5032180;28;45157;-64
2021/12/09 04:37:47;;;;;;;;;1.00;1.00;;;;;6.98;59.92;100154.19;5031092;28;45282;-64
2021/12/09 04:40:15;;;;;;;;;3.00;0.75;;;;;6.79;59.17;100123.50;5032195;28;45710;-65
2021/12/09 04:42:41;;;;;;;;;2.75;0.00;;;;;7.01;60.09;100154.25;5032207;28;44927;-64
2021/12/09 04:45:08;;;;;;;;;0.00;0.00;;;;;7.02;59.87;100150.75;5031156;28;44952;-64
2021/12/09 04:47:33;;;;;;;;;1.00;1.00;;;;;6.95;59.54;100148.78;5031386;28;45103;-63
2021/12/09 04:49:59;;;;;;;;;0.50;0.00;;;;;7.00;59.90;100155.13;5030893;28;45066;-65
2021/12/09 04:52:25;;;;;;;;;1.50;1.50;;;;;6.97;59.72;100155.03;5030551;28;45336;-65
2021/12/09 04:54:50;;;;;;;;;0.00;0.00;;;;;6.86;59.65;100132.56;5030636;28;45156;-65
2021/12/09 04:57:16;;;;;;;;;0.50;0.50;;;;;6.56;59.53;100059.06;5014744;28;45081;-65
2021/12/09 04:59:42;;;;;;;;;4.00;1.00;;;;;7.08;59.54;100161.59;5012071;28;45304;-66
2021/12/09 05:02:12;;;;;;;;;0.75;0.00;;;;;7.07;59.40;100166.84;5012634;28;44926;-64
2021/12/09 05:04:38;;;;;;;;;2.00;0.00;;;;;6.74;59.62;100099.44;5012695;28;45132;-65
2021/12/09 05:07:04;;;;;;;;;1.00;1.00;;;;;7.03;59.09;100159.63;5011982;28;45078;-66
2021/12/09 05:09:29;;;;;;;;;1.75;0.00;;;;;7.00;59.87;100169.31;5012391;28;44897;-65
2021/12/09 05:11:55;;;;;;;;;1.00;1.00;;;;;6.98;59.69;100159.50;5011857;28;45499;-64
2021/12/09 05:14:22;;;;;;;;;1.00;1.00;;;;;6.99;59.77;100166.59;5012395;28;45060;-65
2021/12/09 05:16:53;;;;;;;;;2.00;0.00;;;;;6.96;59.78;100162.13;5012245;28;45169;-66
2021/12/09 05:19:19;;;;;;;;;2.00;2.00;;;;;6.96;60.33;100162.13;5011975;28;45821;-65
2021/12/09 05:21:44;;;;;;;;;3.00;1.25;;;;;6.75;59.72;100126.94;5031642;28;45140;-65
2021/12/09 05:24:12;;;;;;;;;1.00;1.00;;;;;6.93;60.13;100166.41;5031487;28;45370;-64
2021/12/09 05:26:45;;;;;;;;;2.00;1.00;;;;;6.86;60.15;100143.19;5031205;28;45240;-64
2021/12/09 05:29:13;;;;;;;;;4.50;0.25;;;;;6.89;59.97;100153.91;5031084;28;45652;-63
2021/12/09 05:34:23;;;;;;;;;1.25;1.00;;;;;6.89;60.26;100153.91;5030736;28;44952;-65
2021/12/09 05:36:49;;;;;;;;;1.00;1.00;;;;;6.95;60.21;100159.41;5031205;28;45158;-65
2021/12/09 05:39:15;;;;;;;;;1.75;1.75;;;;;6.93;60.11;100167.31;5030943;28;46220;-63
2021/12/09 05:41:41;;;;;;;;;2.25;0.75;;;;;6.91;60.10;100157.50;5030871;28;45077;-65
2021/12/09 05:44:08;;;;;;;;;1.75;1.75;;;;;6.96;60.04;100171.81;5031585;28;45060;-64
2021/12/09 05:46:37;;;;;;;;;1.25;1.00;;;;;6.99;59.85;100178.13;5031648;28;45012;-64
2021/12/09 05:49:03;;;;;;;;;1.25;1.25;;;;;6.88;59.85;100168.94;5031854;28;45825;-66
2021/12/09 05:51:28;;;;;;;;;5.75;1.50;;;;;7.04;60.42;100186.25;5031703;28;45242;-63
2021/12/09 05:53:55;;;;;;;;;2.00;2.00;;;;;7.05;60.31;100180.09;5031643;28;45053;-64
2021/12/09 05:56:21;;;;;;;;;3.75;3.25;;;;;6.91;60.34;100154.84;5046685;28;45193;-64
2021/12/09 05:58:46;;;;;;;;;2.00;2.00;;;;;7.12;60.27;100182.06;5030829;28;45223;-64
2021/12/09 06:01:11;;;;;;;;;3.25;3.25;;;;;7.01;59.60;100160.50;5028167;28;45244;-65
2021/12/09 06:03:37;;;;;;;;;1.25;1.25;;;;;7.05;60.12;100172.13;5029037;28;45253;-64
2021/12/09 06:06:02;;;;;;;;;2.00;2.00;;;;;6.86;60.27;100148.47;5029829;28;45311;-64
2021/12/09 06:08:28;;;;;;;;;6.50;4.00;;;;;7.10;59.89;100191.75;5030319;28;45583;-64
2021/12/09 06:10:53;;;;;;;;;3.25;2.25;;;;;7.11;59.86;100182.94;5031071;28;45093;-64
2021/12/09 06:13:19;;;;;;;;;3.00;3.00;;;;;6.76;60.18;100123.41;5031294;28;45066;-64
2021/12/09 06:15:45;;;;;;;;;6.50;3.50;;;;;7.07;60.10;100191.66;5030946;28;44934;-64
2021/12/09 06:18:11;;;;;;;;;2.00;2.00;;;;;7.05;59.75;100188.06;5031636;28;45692;-65
2021/12/09 06:20:36;;;;;;;;;1.00;1.00;;;;;6.66;60.19;100127.50;5033016;28;45162;-66
2021/12/09 06:23:02;;;;;;;;;6.00;2.00;;;;;7.04;59.88;100198.63;5034357;28;45096;-64
2021/12/09 06:25:27;;;;;;;;;2.00;1.00;;;;;6.99;60.03;100190.50;5049284;28;45173;-66
2021/12/09 06:27:55;;;;;;;;;2.00;2.00;;;;;7.00;60.16;100197.63;5031913;28;47689;-66
2021/12/09 06:30:21;;;;;;;;;12.50;12.25;;;;;6.96;60.11;100201.03;5033564;28;45293;-64
2021/12/09 06:32:47;;;;;;;;;6.50;6.00;;;;;6.95;60.36;100197.47;5033265;28;45004;-67
2021/12/09 06:35:13;;;;;;;;;7.00;6.75;;;;;6.85;60.50;100181.19;5032450;28;45113;-65
2021/12/09 06:37:43;;;;;;;;;7.25;4.00;;;;;6.98;60.38;100204.66;5031074;28;45350;-65
2021/12/09 06:40:13;;;;;;;;;8.00;3.00;;;;;6.91;60.21;100194.66;5030685;28;45077;-64
2021/12/09 06:42:39;;;;;;;;;4.50;4.50;;;;;6.93;60.45;100203.59;5030909;28;45206;-67
2021/12/09 06:45:05;;;;;;;;;5.00;3.00;;;;;7.03;60.14;100212.75;5032408;28;45299;-64
2021/12/09 06:47:30;;;;;;;;;5.75;3.50;;;;;7.00;59.90;100216.22;5032637;28;46131;-65
2021/12/09 06:49:57;;;;;;;;;3.25;3.25;;;;;6.88;60.38;100192.84;5030726;28;45462;-66
2021/12/09 06:52:22;;;;;;;;;3.00;3.00;;;;;7.04;60.06;100227.84;5046069;28;45091;-64
2021/12/09 06:54:48;;;;;;;;;2.75;2.75;;;;;7.02;59.80;100233.09;5032039;28;45134;-67
2021/12/09 06:57:13;;;;;;;;;7.75;3.00;;;;;7.01;60.05;100229.56;5030335;28;45469;-64
2021/12/09 06:59:39;;;;;;;;;5.50;4.00;;;;;6.98;60.00;100245.38;5029761;28;45124;-65
2021/12/09 07:02:04;;;;;;;;;4.00;3.00;;;;;6.84;59.81;100217.47;5030872;28;45107;-67
2021/12/09 07:04:29;;;;;;;;;6.25;3.25;;;;;6.88;60.33;100214.09;5030336;28;45240;-67
2021/12/09 07:06:55;;;;;;;;;5.75;3.75;;;;;6.98;60.03;100231.22;5030479;28;46174;-67
2021/12/09 07:09:22;;;;;;;;;9.00;4.00;;;;;6.92;60.17;100241.63;5032207;28;45021;-66
2021/12/09 07:11:51;;;;;;;;;8.50;5.00;;;;;6.70;60.21;100206.41;5028940;28;45398;-64
2021/12/09 07:14:18;;;;;;;;;10.50;5.50;;;;;6.93;60.21;100239.03;5030862;28;44871;-64
2021/12/09 07:16:44;;;;;;;;;4.25;3.50;;;;;6.93;60.04;100230.13;5029190;28;45307;-65
2021/12/09 07:19:09;;;;;;;;;5.25;3.25;;;;;6.87;60.51;100222.88;5014591;28;45347;-65
2021/12/09 07:21:34;;;;;;;;;7.75;3.25;;;;;6.92;60.05;100234.56;5016178;28;45602;-66
2021/12/09 07:24:00;;;;;;;;;7.50;5.75;;;;;6.90;60.08;100236.28;5015458;28;45583;-64
2021/12/09 07:26:25;;;;;;;;;7.25;6.25;;;;;6.87;60.61;100225.53;5021241;28;45822;-63
2021/12/09 07:28:51;;;;;;;;;6.00;4.00;;;;;6.81;60.08;100212.97;5037003;28;45687;-67
2021/12/09 07:31:16;;;;;;;;;9.00;8.50;;;;;7.00;60.32;100234.81;5015735;28;45347;-64
2021/12/09 07:33:42;;;;;;;;;11.00;7.75;;;;;6.95;60.30;100225.81;5015826;28;45494;-65
2021/12/09 07:36:08;;;;;;;;;4.50;3.75;;;;;6.96;60.00;100233.81;5015134;28;46169;-66
2021/12/09 07:38:33;;;;;;;;;21.25;13.75;;;;;6.98;60.00;100229.44;5015105;28;45560;-66
2021/12/09 07:40:58;;;;;;;;;21.75;15.50;;;;;6.98;60.22;100223.25;5014984;28;45392;-65
2021/12/09 07:43:24;;;;;;;;;8.00;6.00;;;;;6.95;60.12;100236.44;5015527;28;45740;-66
2021/12/09 07:45:49;;;;;;;;;8.00;6.50;;;;;6.87;59.75;100241.47;5015012;28;46567;-66
2021/12/09 07:48:14;;;;;;;;;4.00;3.25;;;;;6.36;60.23;100141.56;5015294;28;45434;-64
2021/12/09 07:50:40;;;;;;;;;9.75;7.00;;;;;6.94;60.56;100230.19;5015573;28;45396;-65
2021/12/09 07:53:06;;;;;;;;;8.00;8.00;;;;;6.97;60.24;100227.63;5015217;28;45297;-65
2021/12/09 07:55:32;;;;;;;;;5.50;5.50;;;;;7.01;59.97;100242.84;5015075;28;45499;-66
2021/12/09 07:57:57;;;;;;;;;7.00;6.00;;;;;7.03;59.76;100239.31;5014811;28;45538;-67
2021/12/09 08:00:32;;;;;;;;;6.00;4.00;;;;;6.90;59.71;100220.34;5014796;28;45307;-65
2021/12/09 08:02:59;;;;;;;;;5.25;5.25;;;;;7.05;60.07;100235.88;5014821;28;45355;-65
2021/12/09 08:05:28;;;;;;;;;9.25;5.50;;;;;6.46;60.22;100142.78;5014893;28;46368;-65
2021/12/09 08:07:53;;;;;;;;;5.25;3.75;;;;;6.46;60.22;100142.78;5012893;28;45330;-64
2021/12/09 08:10:19;;;;;;;;;24.75;15.00;;;;;6.97;60.15;100242.69;5014081;28;45539;-64
2021/12/09 08:12:46;;;;;;;;;7.75;7.00;;;;;6.95;60.20;100247.94;5014726;28;45356;-65
2021/12/09 08:15:13;;;;;;;;;7.50;7.00;;;;;6.86;60.28;100234.34;5014186;28;45362;-66
2021/12/09 08:20:12;;;;;;;;;6.50;4.25;;;;;6.86;60.05;100255.59;5014669;28;45434;-67
2021/12/09 08:22:38;;;;;;;;;4.50;4.00;;;;;6.51;60.17;100194.25;5014942;28;45676;-66
2021/12/09 08:25:06;;;;;;;;;17.25;12.50;;;;;6.77;60.37;100227.00;5014392;28;46261;-66
2021/12/09 08:27:32;;;;;;;;;30.75;29.50;;;;;6.93;60.32;100252.31;5014502;28;45867;-65
2021/12/09 08:30:01;;;;;;;;;9.50;8.00;;;;;6.98;59.85;100245.38;5029644;28;45366;-66
2021/12/09 08:32:26;;;;;;;;;4.00;4.00;;;;;7.00;59.64;100238.38;5014440;28;45368;-66
2021/12/09 08:34:53;;;;;;;;;7.25;3.50;;;;;6.86;59.54;100217.53;5013810;28;45683;-65
2021/12/09 08:37:19;;;;;;;;;7.50;4.50;;;;;6.95;59.67;100236.44;5014228;28;45430;-64
2021/12/09 08:39:45;;;;;;;;;7.75;6.25;;;;;6.90;59.66;100238.94;5013961;28;45305;-65
2021/12/09 08:42:10;;;;;;;;;8.00;6.00;;;;;6.88;59.80;100234.41;5028611;28;45634;-66
2021/12/09 08:44:36;;;;;;;;;7.75;5.50;;;;;6.90;59.87;100244.22;5014321;28;46155;-65
2021/12/09 08:47:02;;;;;;;;;10.25;9.00;;;;;6.51;59.87;100167.72;5014080;28;45418;-64
2021/12/09 08:49:27;;;;;;;;;6.25;4.75;;;;;6.48;59.52;100166.72;5014349;28;45473;-66
2021/12/09 08:51:53;;;;;;;;;8.00;7.25;;;;;6.98;59.74;100255.13;5014412;28;45648;-64
2021/12/09 08:54:18;;;;;;;;;6.00;6.00;;;;;6.80;59.17;100231.50;5013773;28;45623;-66
2021/12/09 08:56:50;;;;;;;;;14.25;9.00;;;;;6.97;59.75;100266.59;5014456;28;45630;-66
2021/12/09 08:59:16;;;;;;;;;12.50;6.75;;;;;6.94;59.58;100272.69;5014261;28;45292;-64
2021/12/09 09:01:42;;;;;;;;;7.75;6.50;;;;;6.79;59.78;100249.16;5014185;28;45598;-67
2021/12/09 09:04:07;;;;;;;;;7.50;6.00;;;;;6.99;59.31;100275.50;5013979;28;45695;-64
2021/12/09 09:06:33;;;;;;;;;7.00;6.75;;;;;6.91;59.37;100269.03;5013747;28;45343;-65
2021/12/09 09:09:04;;;;;;;;;8.50;8.50;;;;;6.99;59.74;100281.69;5014325;28;45935;-65
2021/12/09 09:11:30;;;;;;;;;7.25;6.50;;;;;6.88;59.22;100272.50;5014382;28;45225;-66
2021/12/09 09:13:57;;;;;;;;;9.50;7.50;;;;;6.48;59.78;100202.13;5013987;28;45570;-64
2021/12/09 09:16:22;;;;;;;;;7.00;4.50;;;;;6.94;59.87;100272.69;5013455;28;45423;-65
2021/12/09 09:18:50;;;;;;;;;10.25;8.50;;;;;6.99;59.92;100286.13;5013711;28;45400;-65
2021/12/09 09:21:15;;;;;;;;;8.50;7.00;;;;;7.17;59.08;100297.34;5014181;28;45334;-65
2021/12/09 09:23:41;;;;;;;;;8.75;6.50;;;;;7.20;59.10;100297.44;5013428;28;45558;-67
2021/12/09 09:26:06;;;;;;;;;7.75;6.00;;;;;6.86;59.46;100238.75;5013796;28;45355;-66
2021/12/09 09:28:31;;;;;;;;;11.25;7.00;;;;;7.23;59.54;100298.44;5013831;28;45394;-67
2021/12/09 09:30:57;;;;;;;;;6.75;6.75;;;;;7.26;59.42;100290.53;5013942;28;45382;-65
2021/12/09 09:33:26;;;;;;;;;8.00;8.00;;;;;7.29;59.15;100296.88;5013240;28;45983;-66
2021/12/09 09:35:52;;;;;;;;;14.75;8.00;;;;;7.33;59.82;100297.88;5013433;28;45380;-65
2021/12/09 09:38:19;;;;;;;;;4.25;4.25;;;;;7.32;59.19;100293.38;5013810;28;45331;-66
2021/12/09 09:41:05;;;;;;;;;10.75;8.00;;;;;7.33;58.97;100295.22;5029118;28;45425;-65
2021/12/09 09:43:54;;;;;;;;;10.25;8.50;;;;;7.38;59.37;100298.91;5012878;28;46920;-65
2021/12/09 09:46:20;;;;;;;;;10.50;7.75;;;;;7.47;58.74;100314.22;5013078;28;45287;-67
2021/12/09 09:48:49;;;;;;;;;26.75;24.00;;;;;7.37;59.06;100298.00;5013847;28;45371;-65
2021/12/09 09:51:16;;;;;;;;;11.00;9.25;;;;;7.56;58.81;100320.75;5013450;28;45471;-65
2021/12/09 09:53:42;;;;;;;;;10.00;7.25;;;;;7.44;58.68;100291.13;5016481;28;46258;-65
2021/12/09 09:56:16;;;;;;;;;13.50;9.25;;;;;7.69;58.83;100327.34;5016963;28;45263;-65
2021/12/09 09:58:47;;;;;;;;;13.00;7.25;;;;;7.75;58.86;100322.25;5016736;28;45480;-67
2021/12/09 10:01:13;;;;;;;;;8.25;5.50;;;;;7.79;58.20;100317.91;5016977;28;45521;-65
2021/12/09 10:03:47;;;;;;;;;15.00;9.50;;;;;7.75;58.32;100298.31;5016227;28;45410;-64
2021/12/09 10:06:14;;;;;;;;;11.50;7.75;;;;;7.91;57.80;100322.69;5016234;28;45503;-66
2021/12/09 10:08:39;;;;;;;;;6.00;6.00;;;;;7.78;57.96;100297.47;5016383;28;45354;-66
2021/12/09 10:11:05;;;;;;;;;10.00;7.50;;;;;7.96;58.03;100294.47;5031864;28;45534;-66
2021/12/09 10:13:38;;;;;;;;;9.25;5.00;;;;;8.02;57.19;100301.72;5016516;28;45366;-64
2021/12/09 10:16:14;;;;;;;;;10.75;5.25;;;;;8.12;57.97;100303.81;5016061;28;45609;-65
2021/12/09 10:18:43;;;;;;;;;6.25;5.75;;;;;8.20;57.49;100301.34;5016741;28;45430;-67
2021/12/09 10:21:11;;;;;;;;;9.50;4.50;;;;;8.27;57.08;100300.69;5016476;28;45789;-64
2021/12/09 10:23:45;;;;;;;;;13.50;7.00;;;;;8.32;57.40;100301.72;5016013;28;48374;-66
2021/12/09 10:26:10;;;;;;;;;3.75;3.75;;;;;8.38;57.37;100293.91;5016344;28;45502;-65
2021/12/09 10:28:37;;;;;;;;;8.75;5.50;;;;;8.36;56.70;100278.75;5016464;28;45379;-67
2021/12/09 10:31:14;;;;;;;;;8.00;4.50;;;;;8.43;57.32;100284.31;5016497;28;45423;-65
2021/12/09 10:34:12;;;;;;;;;5.00;4.00;;;;;8.46;56.18;100287.06;5016241;28;45479;-65
2021/12/09 10:36:39;;;;;;;;;4.50;3.75;;;;;8.53;56.49;100277.50;5015567;28;45360;-66
2021/12/09 10:39:21;;;;;;;;;6.00;4.75;;;;;8.58;56.42;100286.50;5016054;28;45217;-66
2021/12/09 10:41:47;;;;;;;;;4.25;4.25;;;;;8.62;56.08;100279.50;5016477;28;45415;-67
2021/12/09 10:44:14;;;;;;;;;5.50;5.50;;;;;8.64;56.97;100272.44;5016021;28;46108;-65
2021/12/09 10:46:55;;;;;;;;;7.50;5.75;;;;;8.16;56.62;100182.41;5015955;28;45300;-65
2021/12/09 10:49:21;;;;;;;;;7.75;5.00;;;;;8.55;55.88;100234.94;5016496;28;45513;-65
2021/12/09 10:51:58;;;;;;;;;2.00;2.00;;;;;8.76;56.56;100263.84;5016436;28;45347;-67
2021/12/09 10:54:36;;;;;;;;;16.00;9.00;;;;;8.78;55.81;100254.16;5015957;28;46382;-67
2021/12/09 10:57:23;;;;;;;;;8.00;5.00;;;;;8.85;55.72;100256.13;5015686;28;45533;-66
2021/12/09 10:59:49;;;;;;;;;6.75;6.75;;;;;8.89;55.41;100257.97;5015302;28;45359;-64
2021/12/09 11:02:14;;;;;;;;;2.50;2.50;;;;;8.94;55.88;100260.75;5015913;28;45303;-66
2021/12/09 11:04:40;;;;;;;;;6.00;6.00;;;;;8.99;55.41;100254.69;5014776;28;45469;-66
2021/12/09 11:07:29;;;;;;;;;5.50;5.50;;;;;9.02;54.76;100252.13;5015860;28;45374;-64
2021/12/09 11:10:22;;;;;;;;;15.50;11.50;;;;;9.04;55.32;100247.72;5015563;28;45433;-66
2021/12/09 11:12:56;;;;;;;;;12.75;9.25;;;;;9.07;55.43;100238.88;5014791;28;45872;-67
2021/12/09 11:15:47;;;;;;;;;11.00;8.25;;;;;9.09;55.41;100247.84;5015176;28;45576;-66
2021/12/09 11:18:40;;;;;;;;;9.25;7.00;;;;;9.07;55.22;100224.66;5015840;28;45635;-64
2021/12/09 11:21:33;;;;;;;;;11.25;7.25;;;;;8.98;54.96;100202.28;5015362;28;45368;-68
2021/12/09 11:24:10;;;;;;;;;7.00;5.75;;;;;9.22;55.02;100228.59;5015805;28;45470;-65
2021/12/09 11:26:57;;;;;;;;;5.00;5.00;;;;;9.23;54.76;100226.84;5014727;28;46155;-66
2021/12/09 11:29:34;;;;;;;;;7.50;7.50;;;;;9.26;54.83;100232.25;5014592;28;45588;-66
2021/12/09 11:34:58;;;;;;;;;12.75;9.25;;;;;9.38;54.85;100228.94;5015522;28;45268;-69
2021/12/09 11:40:00;;;;;;;;;7.50;7.25;;;;;9.13;54.44;100161.75;5015481;28;45496;-67
2021/12/09 11:42:36;;;;;;;;;9.75;9.00;;;;;9.39;54.49;100205.00;5013888;28;45426;-65
2021/12/09 11:45:04;;;;;;;;;7.50;7.50;;;;;9.49;54.71;100222.09;5015563;28;45621;-65